Terminal Aerodrome Forecast
Issued by NWS North Platte, NE

Current Version | Previous Version | Text Only | Print | Product List | Glossary On
Versions: 1 2 3 4 5 6 7 8 9 10 11 12 13 14 15
000
FTUS43 KLBF 280520
TAFVTN
TAF
KVTN 280520Z 2806/2906 26007KT P6SM SKC
     FM281400 30011KT P6SM FEW200
     FM281700 32014G22KT P6SM SCT250
     FM282300 32012KT P6SM BKN250
     FM290300 30005KT P6SM BKN100=

USA.gov is the U.S. government's official web portal to all federal, state and local government web resources and services.